Time;durP1;ratioP1;P1;durP2;ratioP2;P2;SDS_P1;SDS_P2;PMS_P1;PMS_P2;Temp;Humidity;BMP_temperature;BMP_pressure;BME280_temperature;BME280_humidity;BME280_pressure;Samples;Min_cycle;Max_cycle;Signal;HPM_P1;HPM_P2
2021/06/16 00:01:02;;;;;;;13.52;7.18;;;13.80;99.90;;;;;;4143551;28;20033;-75
2021/06/16 00:03:03;;;;;;;13.75;7.15;;;13.80;99.90;;;;;;4145791;28;20037;-75
2021/06/16 00:05:06;;;;;;;15.00;6.60;;;13.70;99.90;;;;;;4146186;28;20058;-76
2021/06/16 00:07:07;;;;;;;11.75;7.07;;;13.70;99.90;;;;;;4145710;28;20026;-76
2021/06/16 00:09:08;;;;;;;14.05;7.53;;;13.60;99.90;;;;;;4172176;28;20060;-76
2021/06/16 00:11:08;;;;;;;12.18;6.80;;;13.60;99.90;;;;;;4143341;28;20612;-76
2021/06/16 00:13:09;;;;;;;14.82;7.40;;;13.50;99.90;;;;;;4144802;28;20036;-76
2021/06/16 00:15:15;;;;;;;12.75;7.70;;;13.50;99.90;;;;;;4144596;28;20034;-76
2021/06/16 00:17:16;;;;;;;13.07;6.88;;;13.50;99.90;;;;;;4144158;28;20053;-76
2021/06/16 00:19:17;;;;;;;15.20;7.78;;;13.40;99.90;;;;;;4144431;28;20041;-76
2021/06/16 00:21:20;;;;;;;12.43;7.60;;;13.40;99.90;;;;;;4142554;28;20104;-76
2021/06/16 00:23:20;;;;;;;9.73;6.82;;;13.40;99.90;;;;;;4143790;28;20584;-76
2021/06/16 00:25:21;;;;;;;11.52;7.28;;;13.40;99.90;;;;;;4143980;28;20044;-76
2021/06/16 00:27:22;;;;;;;14.93;7.72;;;13.30;99.90;;;;;;4143672;28;20041;-76
2021/06/16 00:29:24;;;;;;;12.57;7.28;;;13.30;99.90;;;;;;4144546;28;20034;-76
2021/06/16 00:31:25;;;;;;;13.98;6.85;;;13.30;99.90;;;;;;4175665;28;20033;-76
2021/06/16 00:33:25;;;;;;;14.90;7.78;;;13.20;99.90;;;;;;4144820;28;20050;-76
2021/06/16 00:35:26;;;;;;;15.13;8.02;;;13.20;99.90;;;;;;4144381;28;20034;-76
2021/06/16 00:37:27;;;;;;;9.63;6.53;;;13.20;99.90;;;;;;4144058;28;20554;-76
2021/06/16 00:39:27;;;;;;;12.55;7.32;;;13.20;99.90;;;;;;4144783;28;20037;-75
2021/06/16 00:41:28;;;;;;;11.25;7.40;;;13.10;99.90;;;;;;4145484;28;20045;-76
2021/06/16 00:43:28;;;;;;;13.68;8.43;;;13.10;99.90;;;;;;4145841;28;20042;-76
2021/06/16 00:45:30;;;;;;;23.75;8.55;;;13.00;99.90;;;;;;4145097;28;20042;-76
2021/06/16 00:47:31;;;;;;;10.38;8.23;;;13.00;99.90;;;;;;4148500;28;20057;-74
2021/06/16 00:49:31;;;;;;;10.65;7.47;;;12.90;99.90;;;;;;4148625;28;20045;-75
2021/06/16 00:51:32;;;;;;;14.32;7.05;;;12.90;99.90;;;;;;4148180;28;20658;-75
2021/06/16 00:53:32;;;;;;;21.23;9.07;;;12.90;99.90;;;;;;4148632;28;20172;-75
2021/06/16 00:55:38;;;;;;;12.88;8.27;;;12.90;99.90;;;;;;4148600;28;20029;-75
2021/06/16 00:57:39;;;;;;;11.93;8.18;;;12.80;99.90;;;;;;4147262;28;20049;-75
2021/06/16 01:00:11;;;;;;;14.02;8.50;;;12.80;99.90;;;;;;4148242;28;20065;-75
2021/06/16 01:02:13;;;;;;;14.13;7.95;;;12.90;99.90;;;;;;4141257;28;20050;-75
2021/06/16 01:04:22;;;;;;;13.70;9.20;;;12.80;99.90;;;;;;4148419;28;20413;-75
2021/06/16 01:06:31;;;;;;;17.25;9.82;;;12.80;99.90;;;;;;4148544;28;20596;-75
2021/06/16 01:08:39;;;;;;;15.95;8.82;;;12.70;99.90;;;;;;4148753;28;20041;-75
2021/06/16 01:10:44;;;;;;;12.98;8.27;;;12.70;99.90;;;;;;4148047;28;20068;-76
2021/06/16 01:13:08;;;;;;;13.35;8.63;;;12.80;99.90;;;;;;4148604;28;20065;-75
2021/06/16 01:15:20;;;;;;;18.65;9.70;;;12.70;99.90;;;;;;4142148;28;20034;-75
2021/06/16 01:17:30;;;;;;;16.70;9.02;;;12.60;99.90;;;;;;4148084;28;20050;-75
2021/06/16 01:19:41;;;;;;;12.73;9.00;;;12.50;99.90;;;;;;4148357;28;20025;-75
2021/06/16 01:21:47;;;;;;;13.00;8.32;;;12.60;99.90;;;;;;4148049;28;20461;-75
2021/06/16 01:24:02;;;;;;;22.77;9.23;;;12.50;99.90;;;;;;4148012;28;20378;-75
2021/06/16 01:26:03;;;;;;;17.25;8.80;;;12.50;99.90;;;;;;4147930;28;20117;-75
2021/06/16 01:28:04;;;;;;;13.43;9.20;;;12.50;99.90;;;;;;4146637;28;20064;-75
2021/06/16 01:30:06;;;;;;;14.60;8.30;;;12.40;99.90;;;;;;4147994;28;20095;-75
2021/06/16 01:32:09;;;;;;;12.32;7.90;;;12.40;99.90;;;;;;4146532;28;20132;-76
2021/06/16 01:34:12;;;;;;;10.77;8.50;;;12.40;99.90;;;;;;4146509;28;20026;-75
2021/06/16 01:36:14;;;;;;;15.25;8.15;;;12.40;99.90;;;;;;4148007;28;20370;-75
2021/06/16 01:38:16;;;;;;;17.70;8.48;;;12.40;99.90;;;;;;4148315;28;20481;-75
2021/06/16 01:40:19;;;;;;;13.57;8.60;;;12.20;99.90;;;;;;4145451;28;20038;-75
2021/06/16 01:42:22;;;;;;;16.35;9.77;;;12.30;99.90;;;;;;4147848;28;20061;-76
2021/06/16 01:44:24;;;;;;;16.58;9.40;;;12.60;99.90;;;;;;4147811;28;20516;-76
2021/06/16 01:46:26;;;;;;;11.65;8.88;;;12.30;99.90;;;;;;4147676;28;20459;-76
2021/06/16 01:48:28;;;;;;;13.63;9.40;;;12.30;99.90;;;;;;4148135;28;20033;-75
2021/06/16 01:50:29;;;;;;;16.77;9.10;;;12.30;99.90;;;;;;4144960;28;20080;-75
2021/06/16 01:52:32;;;;;;;14.20;8.43;;;12.20;99.90;;;;;;4143107;28;20030;-75
2021/06/16 01:54:34;;;;;;;17.37;10.63;;;12.30;99.90;;;;;;4147552;28;20029;-75
2021/06/16 01:56:37;;;;;;;15.15;9.07;;;12.20;99.90;;;;;;4147666;28;20058;-75
2021/06/16 01:58:38;;;;;;;14.05;8.88;;;12.30;99.90;;;;;;4147024;28;20033;-76
2021/06/16 02:00:41;;;;;;;13.77;9.90;;;12.20;99.90;;;;;;4147501;28;20504;-76
2021/06/16 02:02:42;;;;;;;15.40;9.03;;;12.10;99.90;;;;;;4147968;28;20037;-76
2021/06/16 02:04:42;;;;;;;16.85;9.82;;;12.20;99.90;;;;;;4146254;28;20177;-75
2021/06/16 02:06:47;;;;;;;15.98;10.60;;;12.20;99.90;;;;;;4147277;28;20034;-75
2021/06/16 02:08:50;;;;;;;17.38;10.50;;;12.20;99.90;;;;;;4146140;28;20034;-75
2021/06/16 02:10:52;;;;;;;16.30;9.32;;;12.20;99.90;;;;;;4147644;28;20061;-75
2021/06/16 02:12:57;;;;;;;12.93;9.15;;;12.30;99.90;;;;;;4145995;28;20029;-75
2021/06/16 02:15:04;;;;;;;11.45;10.13;;;12.20;99.90;;;;;;4147606;28;20030;-75
2021/06/16 02:17:10;;;;;;;15.75;9.38;;;12.10;99.90;;;;;;4144314;28;20033;-76
2021/06/16 02:19:14;;;;;;;24.55;10.85;;;12.10;99.90;;;;;;4145722;28;20046;-76
2021/06/16 02:21:15;;;;;;;16.38;10.48;;;12.10;99.90;;;;;;4146134;28;20061;-75
2021/06/16 02:23:16;;;;;;;13.82;9.70;;;12.10;99.90;;;;;;4147433;28;20030;-76
2021/06/16 02:25:18;;;;;;;14.25;10.18;;;12.10;99.90;;;;;;4147136;28;20048;-75
2021/06/16 02:27:19;;;;;;;14.02;10.10;;;12.10;99.90;;;;;;4145840;28;20034;-75
2021/06/16 02:29:22;;;;;;;17.90;9.82;;;12.00;99.90;;;;;;4147366;28;20028;-76
2021/06/16 02:31:23;;;;;;;11.98;10.70;;;12.00;99.90;;;;;;4145659;28;20413;-76
2021/06/16 02:33:24;;;;;;;15.73;10.15;;;12.00;99.90;;;;;;4144150;28;20034;-76
2021/06/16 02:35:25;;;;;;;18.17;10.00;;;12.10;99.90;;;;;;4140798;28;20045;-74
2021/06/16 02:37:27;;;;;;;15.80;10.85;;;12.10;99.90;;;;;;4145792;28;20099;-75
2021/06/16 02:39:38;;;;;;;13.67;9.37;;;11.70;99.90;;;;;;4146616;28;20040;-75
2021/06/16 02:41:41;;;;;;;13.38;9.02;;;12.10;99.90;;;;;;4146996;28;20308;-75
2021/06/16 02:43:42;;;;;;;13.35;9.38;;;12.20;99.90;;;;;;4141507;28;20158;-74
2021/06/16 02:45:43;;;;;;;14.43;10.32;;;12.00;99.90;;;;;;4130900;28;20529;-75
2021/06/16 02:47:48;;;;;;;15.20;9.40;;;12.00;99.90;;;;;;4130796;28;20085;-74
2021/06/16 02:49:55;;;;;;;17.08;10.43;;;12.00;99.90;;;;;;4144969;28;20030;-74
2021/06/16 02:51:59;;;;;;;12.55;9.50;;;11.90;99.90;;;;;;4139125;28;20041;-75
2021/06/16 02:54:01;;;;;;;15.68;10.02;;;11.90;99.90;;;;;;4145560;28;20048;-76
2021/06/16 02:56:04;;;;;;;16.13;10.05;;;11.90;99.90;;;;;;4136914;28;20438;-76
2021/06/16 02:58:06;;;;;;;14.40;9.98;;;11.90;99.90;;;;;;4146810;28;20017;-74
2021/06/16 03:00:09;;;;;;;19.65;10.02;;;11.90;99.90;;;;;;4145662;28;20030;-74
2021/06/16 03:02:10;;;;;;;;;;;11.90;99.90;;;;;;4145413;28;20065;-75
2021/06/16 03:04:12;;;;;;;13.27;9.43;;;11.90;99.90;;;;;;4146670;28;19913;-75
2021/06/16 03:06:13;;;;;;;19.42;10.13;;;11.90;99.90;;;;;;4146840;28;20034;-75
2021/06/16 03:08:14;;;;;;;20.20;9.80;;;11.70;99.90;;;;;;4146665;28;20473;-75
2021/06/16 03:10:18;;;;;;;11.13;9.90;;;11.80;99.90;;;;;;4145954;28;20041;-75
2021/06/16 03:12:21;;;;;;;;;;;11.80;99.90;;;;;;4144389;28;20480;-76
2021/06/16 03:14:23;;;;;;;21.73;8.48;;;11.80;99.90;;;;;;4133347;28;19921;-75
2021/06/16 03:16:25;;;;;;;20.95;10.38;;;11.80;99.90;;;;;;4143141;28;20037;-75
2021/06/16 03:18:28;;;;;;;14.57;9.90;;;11.80;99.90;;;;;;4129976;28;20409;-75
2021/06/16 03:20:30;;;;;;;15.70;10.68;;;11.80;99.90;;;;;;4130271;28;20038;-75
2021/06/16 03:22:31;;;;;;;14.65;9.52;;;11.80;99.90;;;;;;4130163;28;20147;-75
2021/06/16 03:24:33;;;;;;;11.93;9.32;;;11.90;99.90;;;;;;4130382;28;20034;-75
2021/06/16 03:26:35;;;;;;;15.48;9.80;;;11.90;99.90;;;;;;4129549;28;20050;-75
2021/06/16 03:28:36;;;;;;;18.60;11.35;;;11.90;99.90;;;;;;4128641;28;20037;-75
2021/06/16 03:30:39;;;;;;;19.75;10.95;;;12.00;99.90;;;;;;4130223;28;20037;-75
2021/06/16 03:32:41;;;;;;;11.10;9.13;;;12.00;99.90;;;;;;4130261;28;20434;-75
2021/06/16 03:34:42;;;;;;;15.38;10.05;;;12.00;99.90;;;;;;4129303;28;20277;-75
2021/06/16 03:36:44;;;;;;;15.05;9.65;;;12.00;99.90;;;;;;4129615;28;20446;-75
2021/06/16 03:38:46;;;;;;;14.17;9.40;;;12.00;99.90;;;;;;4160250;28;20079;-75
2021/06/16 03:40:49;;;;;;;12.23;9.13;;;12.00;99.90;;;;;;4127223;28;20097;-75
2021/06/16 03:42:50;;;;;;;14.95;9.25;;;12.10;99.90;;;;;;4127305;28;20042;-77
2021/06/16 03:44:53;;;;;;;14.52;9.20;;;12.10;99.90;;;;;;4129189;28;20034;-75
2021/06/16 03:46:54;;;;;;;15.30;9.45;;;12.10;99.90;;;;;;4159979;28;20029;-76
2021/06/16 03:48:57;;;;;;;16.60;11.02;;;12.10;99.90;;;;;;4128750;28;20038;-76
2021/06/16 03:50:58;;;;;;;12.23;9.48;;;12.10;99.90;;;;;;4126657;28;20046;-75
2021/06/16 03:53:00;;;;;;;13.38;8.30;;;12.20;99.90;;;;;;4128751;28;20026;-75
2021/06/16 03:55:01;;;;;;;16.05;9.05;;;12.20;99.90;;;;;;4128951;28;20093;-75
2021/06/16 03:57:03;;;;;;;13.50;8.90;;;12.20;99.90;;;;;;4125081;28;20035;-75
2021/06/16 03:59:03;;;;;;;18.50;8.93;;;12.20;99.90;;;;;;4127851;28;20093;-75
2021/06/16 04:01:04;;;;;;;15.25;9.10;;;12.20;99.90;;;;;;4130283;28;20077;-75
2021/06/16 04:03:09;;;;;;;13.23;8.60;;;12.20;99.90;;;;;;4130297;28;20030;-75
2021/06/16 04:05:10;;;;;;;16.13;8.88;;;12.30;99.90;;;;;;4130155;28;20046;-75
2021/06/16 04:07:18;;;;;;;17.75;9.50;;;12.40;99.90;;;;;;4128686;28;20474;-75
2021/06/16 04:09:20;;;;;;;14.77;8.85;;;12.50;99.90;;;;;;4129802;28;20738;-75
2021/06/16 04:11:20;;;;;;;15.73;9.52;;;12.50;99.90;;;;;;4124447;28;20022;-75
2021/06/16 04:13:21;;;;;;;17.00;9.35;;;12.50;99.90;;;;;;4115231;28;20049;-75
2021/06/16 04:15:22;;;;;;;11.60;7.72;;;12.50;99.90;;;;;;4127612;28;20370;-75
2021/06/16 04:17:23;;;;;;;11.18;7.10;;;12.50;99.90;;;;;;4120237;28;20038;-75
2021/06/16 04:19:24;;;;;;;14.80;9.02;;;12.60;99.90;;;;;;4127438;28;20133;-75
2021/06/16 04:21:26;;;;;;;16.92;9.98;;;12.50;99.90;;;;;;4131159;28;20034;-74
2021/06/16 04:23:27;;;;;;;12.20;7.47;;;12.60;99.90;;;;;;4131942;28;20109;-74
2021/06/16 04:25:28;;;;;;;15.98;9.93;;;12.70;99.90;;;;;;4132232;28;20038;-75
2021/06/16 04:27:28;;;;;;;14.70;9.10;;;12.80;99.90;;;;;;4132420;28;20458;-75
2021/06/16 04:29:29;;;;;;;16.55;7.88;;;12.80;99.90;;;;;;4130627;28;20038;-75
2021/06/16 04:31:30;;;;;;;11.80;8.48;;;12.90;99.90;;;;;;4130501;28;20042;-76
2021/06/16 04:33:32;;;;;;;13.55;7.32;;;12.80;99.90;;;;;;4130009;28;20043;-75
2021/06/16 04:35:32;;;;;;;10.98;7.82;;;13.00;99.90;;;;;;4131777;28;20041;-76
2021/06/16 04:37:34;;;;;;;12.30;7.35;;;13.20;99.90;;;;;;4132930;28;20039;-76
2021/06/16 04:39:35;;;;;;;14.65;7.38;;;13.20;99.90;;;;;;4132998;28;20047;-76
2021/06/16 04:41:36;;;;;;;13.45;7.32;;;13.20;99.90;;;;;;4139921;28;20037;-75
2021/06/16 04:43:36;;;;;;;14.63;7.40;;;13.10;99.90;;;;;;4130644;28;20040;-75
2021/06/16 04:45:37;;;;;;;14.82;8.10;;;13.30;99.90;;;;;;4132884;28;20442;-76
2021/06/16 04:47:38;;;;;;;10.52;8.02;;;13.40;99.90;;;;;;4133095;28;20038;-75
2021/06/16 04:49:39;;;;;;;14.65;8.00;;;13.50;99.90;;;;;;4132426;28;20046;-75
2021/06/16 04:51:39;;;;;;;13.10;7.65;;;13.60;99.90;;;;;;4137135;28;20381;-76
2021/06/16 04:53:40;;;;;;;17.13;7.32;;;13.60;99.90;;;;;;4132645;28;20501;-76
2021/06/16 04:55:41;;;;;;;9.85;6.63;;;13.80;99.90;;;;;;4134343;28;20489;-76
2021/06/16 04:57:41;;;;;;;8.43;6.65;;;13.90;99.90;;;;;;4132572;28;20469;-75
2021/06/16 04:59:42;;;;;;;8.85;7.30;;;14.00;99.90;;;;;;4133705;28;20129;-77
2021/06/16 05:01:43;;;;;;;12.75;8.02;;;14.00;99.90;;;;;;4133507;28;20042;-76
2021/06/16 05:03:43;;;;;;;15.45;8.10;;;14.00;99.90;;;;;;4131486;28;20125;-75
2021/06/16 05:05:44;;;;;;;12.20;7.50;;;14.10;99.90;;;;;;4125907;28;20458;-76
2021/06/16 05:07:45;;;;;;;11.63;7.00;;;14.20;99.90;;;;;;4127496;28;20031;-75
2021/06/16 05:09:46;;;;;;;14.23;7.78;;;14.30;99.90;;;;;;4130281;28;20069;-76
2021/06/16 05:11:46;;;;;;;11.68;7.50;;;14.40;99.90;;;;;;4131587;28;20121;-76
2021/06/16 05:13:47;;;;;;;11.35;7.45;;;14.50;99.90;;;;;;4129739;28;20465;-76
2021/06/16 05:15:49;;;;;;;16.60;8.30;;;14.50;99.90;;;;;;4130178;28;20030;-76
2021/06/16 05:17:50;;;;;;;9.82;6.78;;;14.80;99.90;;;;;;4129879;28;20125;-75
2021/06/16 05:19:56;;;;;;;12.60;7.00;;;14.90;99.90;;;;;;4129783;28;20096;-75
2021/06/16 05:22:08;;;;;;;14.98;7.80;;;15.10;99.90;;;;;;4129325;28;20436;-76
2021/06/16 05:24:08;;;;;;;13.80;7.72;;;15.10;99.90;;;;;;4131031;28;20085;-75
2021/06/16 05:26:10;;;;;;;17.13;7.65;;;;;;;;;;4131143;28;20034;-75
2021/06/16 05:28:14;;;;;;;11.80;6.93;;;;;;;;;;4130892;28;20130;-73
2021/06/16 05:30:20;;;;;;;17.77;8.13;;;;;;;;;;4130473;28;20039;-74
2021/06/16 05:32:23;;;;;;;12.80;7.55;;;;;;;;;;4129764;28;20101;-74
2021/06/16 05:34:24;;;;;;;14.98;8.57;;;15.70;99.90;;;;;;4131500;28;20034;-73
2021/06/16 05:36:26;;;;;;;14.85;9.18;;;;;;;;;;4129886;28;20037;-75
2021/06/16 05:38:28;;;;;;;28.60;20.13;;;16.10;99.90;;;;;;4131480;28;20062;-74
2021/06/16 05:40:29;;;;;;;18.58;10.90;;;16.30;99.90;;;;;;4131441;28;20365;-75
2021/06/16 05:42:29;;;;;;;13.63;9.00;;;16.30;99.90;;;;;;4132085;28;20034;-75
2021/06/16 05:44:32;;;;;;;12.95;7.80;;;16.40;99.90;;;;;;4135987;28;20037;-73
2021/06/16 05:46:33;;;;;;;10.73;7.05;;;16.50;99.90;;;;;;4132259;28;20034;-73
2021/06/16 05:48:34;;;;;;;11.35;6.50;;;16.70;99.90;;;;;;4126633;28;20030;-74
2021/06/16 05:50:34;;;;;;;9.93;7.07;;;16.90;99.90;;;;;;4129134;28;20038;-74
2021/06/16 05:52:35;;;;;;;12.40;7.63;;;16.90;99.90;;;;;;4129008;28;20041;-75
2021/06/16 05:54:39;;;;;;;8.52;6.40;;;17.10;99.90;;;;;;4131923;28;20177;-75
2021/06/16 05:56:41;;;;;;;12.07;6.50;;;17.20;99.90;;;;;;4131969;28;20046;-74
2021/06/16 05:58:42;;;;;;;10.88;7.20;;;17.40;99.90;;;;;;4135664;28;20026;-75
2021/06/16 06:00:43;;;;;;;13.82;6.63;;;17.50;99.90;;;;;;4133410;28;20040;-74
2021/06/16 06:02:44;;;;;;;12.07;7.25;;;17.70;99.90;;;;;;4131711;28;20034;-74
2021/06/16 06:04:44;;;;;;;12.30;7.07;;;17.80;99.90;;;;;;4129654;28;20122;-74
2021/06/16 06:06:45;;;;;;;15.10;6.30;;;17.90;99.90;;;;;;4133686;28;20093;-74
2021/06/16 06:08:46;;;;;;;13.88;7.05;;;18.00;99.90;;;;;;4129866;28;20431;-73
2021/06/16 06:10:48;;;;;;;12.43;6.65;;;18.10;99.90;;;;;;4131476;28;20524;-74
2021/06/16 06:12:49;;;;;;;12.57;7.22;;;18.20;99.90;;;;;;4129109;28;20054;-74
2021/06/16 06:14:49;;;;;;;10.13;6.53;;;18.30;99.90;;;;;;4131373;28;20034;-73
2021/06/16 06:16:50;;;;;;;18.25;6.68;;;18.40;99.90;;;;;;4131608;28;20046;-74
2021/06/16 06:18:51;;;;;;;17.60;8.68;;;18.50;99.90;;;;;;4137201;28;20585;-73
2021/06/16 06:20:51;;;;;;;10.75;5.93;;;18.60;99.90;;;;;;4129796;28;20023;-74
2021/06/16 06:22:55;;;;;;;13.10;6.55;;;18.70;99.90;;;;;;4131555;28;20030;-74
2021/06/16 06:24:56;;;;;;;21.88;8.27;;;18.70;99.90;;;;;;4131236;28;20030;-74
2021/06/16 06:26:57;;;;;;;20.45;7.65;;;18.90;99.90;;;;;;4128933;28;20120;-76
2021/06/16 06:28:58;;;;;;;12.55;7.35;;;;;;;;;;4129431;28;20034;-76
2021/06/16 06:30:58;;;;;;;11.63;6.30;;;19.10;99.90;;;;;;4131033;28;20077;-76
2021/06/16 06:32:59;;;;;;;9.98;7.13;;;;;;;;;;4129853;28;20128;-75
2021/06/16 06:35:00;;;;;;;12.10;6.88;;;19.20;99.90;;;;;;4129645;28;20047;-75
2021/06/16 06:37:01;;;;;;;9.48;6.47;;;19.40;99.90;;;;;;4129686;28;20042;-75
2021/06/16 06:39:03;;;;;;;16.17;6.97;;;19.50;99.90;;;;;;4130563;28;20050;-76
2021/06/16 06:41:06;;;;;;;21.95;8.80;;;;;;;;;;4128005;28;20058;-76
2021/06/16 06:43:08;;;;;;;17.92;7.22;;;19.70;99.90;;;;;;4126776;28;20096;-76
2021/06/16 06:45:09;;;;;;;19.67;8.20;;;19.80;99.90;;;;;;4126376;28;20066;-76
2021/06/16 06:47:10;;;;;;;14.60;7.25;;;19.80;99.90;;;;;;4127095;28;20046;-77
2021/06/16 06:49:11;;;;;;;10.27;6.82;;;19.90;99.90;;;;;;4130382;28;20031;-76
2021/06/16 06:51:12;;;;;;;12.20;7.32;;;20.00;99.90;;;;;;4127686;28;20053;-77
2021/06/16 06:53:14;;;;;;;14.77;7.03;;;20.10;99.90;;;;;;4130663;28;20113;-75
2021/06/16 06:55:16;;;;;;;15.48;7.05;;;20.30;99.90;;;;;;4130257;28;20035;-76
2021/06/16 06:57:17;;;;;;;16.90;6.03;;;20.40;99.90;;;;;;4130969;28;20518;-75
2021/06/16 06:59:19;;;;;;;15.13;8.00;;;20.40;99.90;;;;;;4129984;28;20026;-75
2021/06/16 07:01:20;;;;;;;8.98;6.07;;;20.50;99.90;;;;;;4128708;28;20433;-75
2021/06/16 07:03:20;;;;;;;6.63;5.47;;;20.70;99.90;;;;;;4128713;28;20392;-75
2021/06/16 07:05:21;;;;;;;18.90;8.05;;;20.90;99.90;;;;;;4126968;28;20042;-75
2021/06/16 07:07:22;;;;;;;11.25;5.68;;;21.00;99.90;;;;;;4128935;28;20097;-74
2021/06/16 07:09:24;;;;;;;9.15;5.50;;;21.10;99.90;;;;;;4128886;28;20173;-75
2021/06/16 07:11:25;;;;;;;7.23;4.80;;;20.90;99.90;;;;;;4129222;28;20040;-75
2021/06/16 07:13:26;;;;;;;12.25;6.07;;;21.10;99.90;;;;;;4127415;28;20100;-75
2021/06/16 07:15:26;;;;;;;11.40;5.25;;;21.30;99.90;;;;;;4128672;28;20034;-75
2021/06/16 07:17:27;;;;;;;9.07;5.22;;;21.50;99.90;;;;;;4126522;28;20069;-75
2021/06/16 07:19:27;;;;;;;6.43;4.55;;;21.60;99.90;;;;;;4128450;28;20509;-75
2021/06/16 07:21:28;;;;;;;10.50;4.88;;;21.70;99.90;;;;;;4124491;28;20058;-75
2021/06/16 07:23:29;;;;;;;8.77;4.30;;;21.70;99.90;;;;;;4128030;28;20492;-75
2021/06/16 07:25:29;;;;;;;9.80;4.32;;;21.80;99.90;;;;;;4130112;28;20109;-75
2021/06/16 07:27:30;;;;;;;5.45;3.60;;;22.00;99.90;;;;;;4128941;28;20077;-76
2021/06/16 07:29:31;;;;;;;7.40;4.00;;;22.30;99.90;;;;;;4128405;28;20068;-77
2021/06/16 07:31:32;;;;;;;9.85;3.63;;;22.20;99.90;;;;;;4133451;28;20197;-77
2021/06/16 07:33:35;;;;;;;5.18;3.97;;;22.30;99.90;;;;;;4129393;28;20049;-77
2021/06/16 07:35:36;;;;;;;6.20;3.97;;;22.40;99.90;;;;;;4141208;28;20063;-76
2021/06/16 07:37:37;;;;;;;12.13;3.90;;;22.60;99.90;;;;;;4128546;28;20389;-77
2021/06/16 07:39:38;;;;;;;7.57;4.68;;;22.60;99.90;;;;;;4128653;28;20118;-77
2021/06/16 07:41:38;;;;;;;7.75;3.50;;;22.80;99.90;;;;;;4135247;28;20038;-76
2021/06/16 07:43:39;;;;;;;9.32;3.95;;;22.90;99.90;;;;;;4128702;28;20045;-76
2021/06/16 07:45:40;;;;;;;9.73;4.03;;;23.10;99.90;;;;;;4127555;28;20131;-77
2021/06/16 07:47:42;;;;;;;9.68;3.75;;;23.30;99.90;;;;;;4128178;28;20030;-76
2021/06/16 07:49:42;;;;;;;9.65;3.58;;;23.40;99.90;;;;;;4128676;28;20042;-76
2021/06/16 07:51:43;;;;;;;5.03;3.63;;;23.50;99.90;;;;;;4127268;28;20045;-76
2021/06/16 07:53:44;;;;;;;6.95;3.45;;;23.60;99.90;;;;;;4127428;28;20080;-76
2021/06/16 07:55:44;;;;;;;5.97;3.75;;;23.70;99.90;;;;;;4128451;28;20085;-74
2021/06/16 07:57:45;;;;;;;7.55;3.33;;;23.80;99.90;;;;;;4129550;28;20053;-76
2021/06/16 07:59:46;;;;;;;7.82;3.58;;;24.00;99.90;;;;;;4128683;28;20065;-75
2021/06/16 08:01:48;;;;;;;6.63;3.60;;;24.20;99.90;;;;;;4129580;28;20070;-75
2021/06/16 08:03:49;;;;;;;6.97;3.95;;;24.30;99.90;;;;;;4124692;28;20050;-76
2021/06/16 08:05:50;;;;;;;10.52;4.03;;;24.40;99.90;;;;;;4126547;28;20034;-75
2021/06/16 08:07:51;;;;;;;4.63;3.22;;;24.40;99.90;;;;;;4127756;28;20369;-76
2021/06/16 08:09:51;;;;;;;6.97;3.17;;;24.10;99.90;;;;;;4128503;28;20054;-76
2021/06/16 08:11:52;;;;;;;4.47;4.07;;;24.50;99.90;;;;;;4129464;28;20072;-75
2021/06/16 08:13:53;;;;;;;7.82;3.88;;;25.50;99.90;;;;;;4129501;28;20482;-75
2021/06/16 08:15:54;;;;;;;7.32;3.10;;;25.00;99.90;;;;;;4129040;28;20066;-75
2021/06/16 08:17:55;;;;;;;4.07;3.30;;;24.10;99.90;;;;;;4125273;28;20457;-76
2021/06/16 08:19:56;;;;;;;6.18;3.63;;;24.70;99.90;;;;;;4128115;28;20470;-76
2021/06/16 08:21:58;;;;;;;6.85;3.20;;;24.90;99.90;;;;;;4128566;28;20038;-76
2021/06/16 08:23:59;;;;;;;5.43;3.17;;;25.00;99.90;;;;;;4127268;28;20045;-76
2021/06/16 08:26:02;;;;;;;4.20;3.80;;;25.10;99.90;;;;;;4122085;28;20101;-76
2021/06/16 08:28:03;;;;;;;5.03;3.30;;;25.20;99.90;;;;;;4123971;28;20557;-75
2021/06/16 08:30:05;;;;;;;7.05;4.40;;;25.20;99.90;;;;;;4129521;28;20030;-76
2021/06/16 08:32:06;;;;;;;6.70;3.60;;;25.20;99.90;;;;;;4125408;28;20434;-76
2021/06/16 08:34:07;;;;;;;6.57;3.65;;;25.30;99.90;;;;;;4128448;28;20030;-76
2021/06/16 08:36:08;;;;;;;6.85;3.97;;;25.30;99.90;;;;;;4126766;28;20066;-76
2021/06/16 08:38:09;;;;;;;5.85;3.90;;;25.70;99.90;;;;;;4125548;28;20036;-78
2021/06/16 08:40:10;;;;;;;6.68;4.35;;;25.40;99.90;;;;;;4127623;28;20473;-76
2021/06/16 08:42:11;;;;;;;5.60;3.88;;;25.70;99.90;;;;;;4127485;28;20584;-77
2021/06/16 08:44:18;;;;;;;5.43;3.63;;;26.00;99.90;;;;;;4123596;28;20039;-76
2021/06/16 08:46:19;;;;;;;4.90;3.85;;;26.10;99.90;;;;;;4127250;28;20030;-76
2021/06/16 08:48:20;;;;;;;6.35;3.75;;;26.20;99.90;;;;;;4127918;28;20039;-76
2021/06/16 08:50:20;;;;;;;6.72;3.80;;;26.30;99.90;;;;;;4128322;28;20037;-75
2021/06/16 08:52:21;;;;;;;7.68;4.22;;;26.20;99.90;;;;;;4125749;28;20065;-75
2021/06/16 08:54:22;;;;;;;5.22;4.18;;;26.10;99.90;;;;;;4129034;28;20187;-76
2021/06/16 08:56:23;;;;;;;6.07;3.40;;;26.20;99.90;;;;;;4122553;28;20049;-77
2021/06/16 08:58:24;;;;;;;6.10;3.60;;;26.20;99.90;;;;;;4137814;28;20034;-76
2021/06/16 09:00:24;;;;;;;7.10;3.97;;;26.40;99.90;;;;;;4127172;28;20809;-76
2021/06/16 09:02:25;;;;;;;4.30;3.50;;;26.60;99.90;;;;;;4127052;28;20057;-76
2021/06/16 09:04:46;;;;;;;8.73;3.85;;;26.80;99.90;;;;;;4128146;28;20050;-76
2021/06/16 09:06:47;;;;;;;5.38;3.70;;;26.90;99.90;;;;;;4128032;28;20045;-75
2021/06/16 09:09:08;;;;;;;7.65;4.32;;;26.90;99.90;;;;;;4129785;28;20034;-76
2021/06/16 09:11:09;;;;;;;6.38;3.70;;;26.60;99.90;;;;;;4146244;28;20029;-75
2021/06/16 09:13:11;;;;;;;4.43;3.28;;;26.80;99.90;;;;;;4132850;28;20624;-75
2021/06/16 09:15:20;;;;;;;14.27;6.27;;;27.00;99.90;;;;;;4135869;28;20037;-75
2021/06/16 09:17:25;;;;;;;7.05;3.90;;;27.00;99.90;;;;;;4140754;28;20265;-75
2021/06/16 09:19:32;;;;;;;6.43;3.90;;;27.00;99.90;;;;;;4148490;28;20042;-76
2021/06/16 09:21:36;;;;;;;7.88;4.60;;;27.00;99.90;;;;;;4148006;28;20034;-76
2021/06/16 09:23:41;;;;;;;5.05;3.90;;;;;;;;;;4148432;28;20041;-77
2021/06/16 09:25:43;;;;;;;4.53;3.97;;;;;;;;;;4147071;28;20065;-76
2021/06/16 09:27:45;;;;;;;6.18;4.25;;;;;;;;;;4147924;28;20121;-76
2021/06/16 09:29:46;;;;;;;5.85;4.00;;;;;;;;;;4148213;28;20044;-77
2021/06/16 09:31:48;;;;;;;5.25;4.35;;;;;;;;;;4148244;28;20045;-77
2021/06/16 09:33:51;;;;;;;5.88;3.80;;;;;;;;;;4148365;28;20034;-79
2021/06/16 09:35:52;;;;;;;11.40;4.65;;;;;;;;;;4147363;28;20117;-77
2021/06/16 09:37:54;;;;;;;6.63;4.80;;;;;;;;;;4148377;28;20362;-77
2021/06/16 09:40:00;;;;;;;5.28;4.10;;;;;;;;;;4145913;28;20103;-76
2021/06/16 09:42:03;;;;;;;4.72;4.20;;;;;;;;;;4134320;28;20033;-77
2021/06/16 09:44:04;;;;;;;7.07;3.95;;;28.40;99.90;;;;;;4145475;28;20065;-76
2021/06/16 09:46:07;;;;;;;5.63;4.00;;;28.40;99.90;;;;;;4145749;28;20320;-77
2021/06/16 09:48:27;;;;;;;5.65;4.35;;;28.40;99.90;;;;;;4146107;28;20037;-75
2021/06/16 09:50:29;;;;;;;5.85;4.25;;;28.10;99.90;;;;;;4146202;28;20069;-77
2021/06/16 09:52:37;;;;;;;5.53;3.80;;;28.10;99.90;;;;;;4146067;28;20124;-76
2021/06/16 09:54:39;;;;;;;4.15;3.75;;;28.30;99.90;;;;;;4142117;28;20699;-75
2021/06/16 09:56:44;;;;;;;6.35;4.25;;;28.70;99.90;;;;;;4146241;28;20030;-75
2021/06/16 09:58:45;;;;;;;6.18;3.78;;;29.10;99.90;;;;;;4146224;28;20030;-76
2021/06/16 10:00:49;;;;;;;4.53;3.40;;;28.70;99.90;;;;;;4146212;28;20038;-76
2021/06/16 10:03:18;;;;;;;6.80;4.60;;;29.30;99.90;;;;;;4145513;28;20041;-75
2021/06/16 10:05:19;;;;;;;7.25;4.22;;;;;;;;;;4124707;28;20037;-76
2021/06/16 10:07:24;;;;;;;10.27;4.93;;;29.40;99.90;;;;;;4129711;28;20038;-76
2021/06/16 10:09:26;;;;;;;8.07;4.10;;;29.50;99.90;;;;;;4132138;28;20129;-76
2021/06/16 10:11:31;;;;;;;5.60;4.38;;;29.60;99.90;;;;;;4128260;28;20395;-76
2021/06/16 10:13:32;;;;;;;7.28;4.43;;;;;;;;;;4128793;28;20052;-78
2021/06/16 10:15:33;;;;;;;5.75;4.13;;;29.90;99.90;;;;;;4131534;28;20034;-78
2021/06/16 10:17:34;;;;;;;6.85;4.53;;;30.20;99.90;;;;;;4126189;28;20224;-78
2021/06/16 10:19:36;;;;;;;5.05;4.15;;;30.10;99.90;;;;;;4127428;28;20035;-77
2021/06/16 10:21:37;;;;;;;9.57;5.63;;;30.40;99.90;;;;;;4131567;28;20043;-77
2021/06/16 10:23:38;;;;;;;9.88;5.20;;;30.20;99.90;;;;;;4130859;28;20041;-76
2021/06/16 10:25:40;;;;;;;5.78;4.25;;;30.20;99.90;;;;;;4129642;28;20044;-77
2021/06/16 10:27:57;;;;;;;6.03;4.97;;;30.20;99.90;;;;;;4130829;28;20517;-75
2021/06/16 10:30:12;;;;;;;4.32;3.80;;;30.80;99.90;;;;;;4121771;28;20064;-77
2021/06/16 10:32:13;;;;;;;9.73;5.30;;;30.90;99.90;;;;;;4130824;28;20030;-76
2021/06/16 10:34:14;;;;;;;8.15;4.88;;;31.40;99.90;;;;;;4129856;28;20533;-77
2021/06/16 10:36:22;;;;;;;6.18;5.28;;;30.80;99.90;;;;;;4125494;28;20026;-78